createdAt,value
2023-02-06T00:00:53.107Z,15.70
2023-02-06T00:03:20.384Z,17.33
2023-02-06T00:05:57.841Z,13.98
2023-02-06T00:08:25.080Z,17.73
2023-02-06T00:10:52.309Z,21.80
2023-02-06T00:13:19.438Z,15.40
2023-02-06T00:15:46.667Z,14.23
2023-02-06T00:18:13.813Z,17.60
2023-02-06T00:20:40.878Z,21.88
2023-02-06T00:23:08.032Z,20.33
2023-02-06T00:25:35.373Z,20.33
2023-02-06T00:28:02.698Z,15.98
2023-02-06T00:30:29.855Z,17.77
2023-02-06T00:32:57.001Z,17.45
2023-02-06T00:35:24.123Z,22.48
2023-02-06T00:37:51.282Z,11.18
2023-02-06T00:40:18.573Z,11.25
2023-02-06T00:42:45.736Z,16.05
2023-02-06T00:45:13.268Z,16.95
2023-02-06T00:47:41.454Z,15.57
2023-02-06T00:50:09.931Z,27.70
2023-02-06T00:52:37.095Z,19.60
2023-02-06T00:55:05.146Z,21.30
2023-02-06T00:57:32.312Z,21.80
2023-02-06T00:59:59.394Z,14.52
2023-02-06T01:02:26.983Z,26.85
2023-02-06T01:04:54.114Z,18.48
2023-02-06T01:07:21.315Z,17.02
2023-02-06T01:09:48.401Z,17.05
2023-02-06T01:12:15.550Z,25.63
2023-02-06T01:14:42.689Z,16.92
2023-02-06T01:17:11.979Z,21.10
2023-02-06T01:19:39.450Z,21.48
2023-02-06T01:22:07.130Z,17.73
2023-02-06T01:24:35.394Z,13.95
2023-02-06T01:27:03.408Z,16.20
2023-02-06T01:29:30.493Z,18.27
2023-02-06T01:31:57.548Z,13.32
2023-02-06T01:34:24.703Z,14.55
2023-02-06T01:36:52.057Z,14.50
2023-02-06T01:39:19.239Z,20.55
2023-02-06T01:41:46.412Z,19.00
2023-02-06T01:44:17.795Z,17.17
2023-02-06T01:46:46.714Z,19.48
2023-02-06T01:49:20.059Z,26.60
2023-02-06T01:51:47.520Z,15.18
2023-02-06T01:54:15.040Z,20.30
2023-02-06T01:56:44.322Z,20.10
2023-02-06T01:59:12.358Z,19.42
2023-02-06T02:01:39.695Z,20.10
2023-02-06T02:04:07.945Z,21.17
2023-02-06T02:06:35.313Z,20.95
2023-02-06T02:09:03.244Z,18.58
2023-02-06T02:11:32.496Z,22.20
2023-02-06T02:14:00.270Z,19.05
2023-02-06T02:16:32.065Z,16.48
2023-02-06T02:19:05.058Z,24.48
2023-02-06T02:21:44.401Z,20.48
2023-02-06T02:24:34.596Z,19.02
2023-02-06T02:27:14.092Z,18.77
2023-02-06T02:29:44.122Z,12.75
2023-02-06T02:32:29.889Z,18.92
2023-02-06T02:35:07.803Z,9.18
2023-02-06T02:37:44.993Z,22.05
2023-02-06T02:40:18.700Z,23.73
2023-02-06T02:42:52.412Z,17.55
2023-02-06T02:45:19.731Z,25.25
2023-02-06T02:47:50.248Z,17.30
2023-02-06T02:50:18.929Z,17.42
2023-02-06T02:52:46.450Z,20.67
2023-02-06T02:55:17.604Z,24.20
2023-02-06T02:57:47.068Z,23.40
2023-02-06T03:00:14.549Z,24.42
2023-02-06T03:02:42.611Z,23.08
2023-02-06T03:05:12.090Z,25.42
2023-02-06T03:08:00.819Z,27.80
2023-02-06T03:10:47.821Z,24.88
2023-02-06T03:13:29.314Z,25.70
2023-02-06T03:16:05.626Z,13.40
2023-02-06T03:18:45.177Z,11.48
2023-02-06T03:21:14.037Z,19.10
2023-02-06T03:23:43.699Z,21.92
2023-02-06T03:26:11.836Z,15.18
2023-02-06T03:28:40.728Z,12.38
2023-02-06T03:31:10.402Z,10.13
2023-02-06T03:33:40.839Z,16.80
2023-02-06T03:36:11.065Z,16.25
2023-02-06T03:38:38.160Z,15.07
2023-02-06T03:41:06.437Z,15.30
2023-02-06T03:43:33.531Z,17.27
2023-02-06T03:46:21.142Z,23.65
2023-02-06T03:48:49.675Z,21.80
2023-02-06T03:51:19.771Z,19.90
2023-02-06T03:53:47.996Z,20.23
2023-02-06T03:56:19.988Z,20.48
2023-02-06T03:58:47.081Z,22.63
2023-02-06T04:01:14.299Z,16.55
2023-02-06T04:03:41.584Z,13.25
2023-02-06T04:06:08.957Z,18.83
2023-02-06T04:08:36.032Z,14.52
2023-02-06T04:11:03.135Z,12.60
2023-02-06T04:13:30.231Z,13.13
2023-02-06T04:15:57.411Z,14.70
2023-02-06T04:18:25.613Z,20.50
2023-02-06T04:20:52.939Z,13.32
2023-02-06T04:23:20.686Z,12.65
2023-02-06T04:25:48.314Z,15.13
2023-02-06T04:28:17.013Z,10.38
2023-02-06T04:30:44.181Z,15.07
2023-02-06T04:33:11.313Z,10.70
2023-02-06T04:35:38.498Z,11.68
2023-02-06T04:38:05.726Z,13.25
2023-02-06T04:40:32.899Z,12.82
2023-02-06T04:43:00.115Z,13.65
2023-02-06T04:45:27.216Z,14.70
2023-02-06T04:47:54.292Z,16.13
2023-02-06T04:50:21.449Z,8.75
2023-02-06T04:52:48.655Z,10.20
2023-02-06T04:55:15.874Z,20.48
2023-02-06T04:57:43.070Z,18.23
2023-02-06T05:00:10.493Z,17.77
2023-02-06T05:02:39.808Z,11.73
2023-02-06T05:05:08.084Z,18.60
2023-02-06T05:07:35.552Z,19.13
2023-02-06T05:10:02.833Z,13.68
2023-02-06T05:12:29.979Z,15.55
2023-02-06T05:14:57.102Z,22.15
2023-02-06T05:17:24.223Z,15.05
2023-02-06T05:19:51.423Z,17.80
2023-02-06T05:22:18.495Z,16.63
2023-02-06T05:24:45.625Z,21.60
2023-02-06T05:27:12.783Z,21.80
2023-02-06T05:29:40.156Z,26.17
2023-02-06T05:32:07.251Z,15.07
2023-02-06T05:34:35.099Z,17.05
2023-02-06T05:37:02.240Z,18.33
2023-02-06T05:39:29.527Z,19.88
2023-02-06T05:41:56.697Z,14.05
2023-02-06T05:44:23.781Z,18.55
2023-02-06T05:46:50.892Z,15.90
2023-02-06T05:49:18.099Z,18.55
2023-02-06T05:51:45.193Z,17.50
2023-02-06T05:54:12.322Z,16.17
2023-02-06T05:56:39.419Z,19.45
2023-02-06T05:59:06.536Z,20.75
2023-02-06T06:01:36.464Z,17.52
2023-02-06T06:04:03.805Z,24.63
2023-02-06T06:06:30.905Z,19.77
2023-02-06T06:09:01.170Z,17.33
2023-02-06T06:11:31.806Z,18.00
2023-02-06T06:13:58.892Z,15.95
2023-02-06T06:16:26.037Z,17.55
2023-02-06T06:18:53.178Z,17.20
2023-02-06T06:21:20.248Z,12.55
2023-02-06T06:23:47.450Z,18.52
2023-02-06T06:26:14.550Z,18.92
2023-02-06T06:28:41.649Z,22.85
2023-02-06T06:31:11.823Z,24.27
2023-02-06T06:33:39.833Z,19.83
2023-02-06T06:36:07.808Z,17.77
2023-02-06T06:38:34.937Z,17.88
2023-02-06T06:41:02.059Z,15.35
2023-02-06T06:43:29.269Z,27.23
2023-02-06T06:45:56.608Z,24.10
2023-02-06T06:48:23.838Z,20.27
2023-02-06T06:50:50.955Z,22.88
2023-02-06T06:53:18.117Z,20.13
2023-02-06T06:55:45.392Z,20.77
2023-02-06T06:58:12.499Z,23.98
2023-02-06T07:00:40.362Z,23.95
2023-02-06T07:03:07.956Z,17.95
2023-02-06T07:05:35.987Z,13.77
2023-02-06T07:08:03.222Z,17.55
2023-02-06T07:10:30.282Z,19.20
2023-02-06T07:12:57.484Z,19.40
2023-02-06T07:15:24.702Z,14.10
2023-02-06T07:17:51.869Z,11.25
2023-02-06T07:20:19.077Z,11.30
2023-02-06T07:22:47.450Z,11.43
2023-02-06T07:25:14.598Z,17.73
2023-02-06T07:27:41.922Z,13.38
2023-02-06T07:30:09.523Z,15.07
2023-02-06T07:32:36.972Z,15.10
2023-02-06T07:35:05.037Z,17.23
2023-02-06T07:37:32.519Z,23.38
2023-02-06T07:39:59.724Z,15.07
2023-02-06T07:42:28.015Z,16.23
2023-02-06T07:45:00.593Z,17.10
2023-02-06T07:47:27.966Z,21.08
2023-02-06T07:49:57.579Z,16.63
2023-02-06T07:52:24.713Z,13.20
2023-02-06T07:54:51.903Z,20.45
2023-02-06T07:57:20.021Z,12.25
2023-02-06T07:59:47.138Z,12.77
2023-02-06T08:02:14.327Z,13.95
2023-02-06T08:05:01.117Z,22.08
2023-02-06T08:07:28.462Z,13.30
2023-02-06T08:09:55.771Z,23.55
2023-02-06T08:12:23.130Z,17.92
2023-02-06T08:14:50.201Z,17.30
2023-02-06T08:17:19.510Z,15.63
2023-02-06T08:19:47.157Z,19.15
2023-02-06T08:22:14.251Z,20.05
2023-02-06T08:24:41.443Z,17.30
2023-02-06T08:27:27.357Z,39.38
2023-02-06T08:29:54.451Z,20.55
2023-02-06T08:32:21.597Z,21.45
2023-02-06T08:34:48.747Z,18.63
2023-02-06T08:37:15.888Z,23.30
2023-02-06T08:39:43.040Z,20.27
2023-02-06T08:42:10.179Z,15.35
2023-02-06T08:44:37.344Z,18.15
2023-02-06T08:47:10.203Z,19.67
2023-02-06T08:49:37.651Z,16.55
2023-02-06T08:52:05.665Z,13.68
2023-02-06T08:54:35.517Z,21.08
2023-02-06T08:57:03.515Z,15.68
2023-02-06T08:59:30.952Z,17.10
2023-02-06T09:01:59.532Z,15.95
2023-02-06T09:04:29.853Z,9.27
2023-02-06T09:06:57.311Z,19.15
2023-02-06T09:09:24.430Z,14.40
2023-02-06T09:11:51.924Z,14.52
2023-02-06T09:14:19.215Z,17.35
2023-02-06T09:16:46.698Z,27.83
2023-02-06T09:19:14.316Z,17.05
2023-02-06T09:21:41.703Z,15.30
2023-02-06T09:24:09.766Z,19.17
2023-02-06T09:26:44.866Z,26.45
2023-02-06T09:29:17.503Z,26.67
2023-02-06T09:31:44.788Z,26.48
2023-02-06T09:34:13.087Z,25.67
2023-02-06T09:36:40.275Z,20.65
2023-02-06T09:39:08.484Z,39.40
2023-02-06T09:41:43.982Z,32.58
2023-02-06T09:44:14.206Z,28.67
2023-02-06T09:46:50.397Z,30.23
2023-02-06T09:49:24.255Z,26.60
2023-02-06T09:51:57.076Z,25.65
2023-02-06T09:54:30.374Z,28.40
2023-02-06T09:56:57.448Z,27.45
2023-02-06T09:59:33.052Z,33.00
2023-02-06T10:02:02.984Z,21.15
2023-02-06T10:04:35.980Z,22.98
2023-02-06T10:07:14.725Z,27.55
2023-02-06T10:09:44.956Z,22.00
2023-02-06T10:12:20.423Z,22.70
2023-02-06T10:14:49.785Z,23.20
2023-02-06T10:17:24.786Z,23.17
2023-02-06T10:19:52.012Z,24.45
2023-02-06T10:22:28.837Z,23.45
2023-02-06T10:25:19.387Z,22.25
2023-02-06T10:27:48.593Z,32.15
2023-02-06T10:30:20.347Z,33.13
2023-02-06T10:33:24.798Z,21.38
2023-02-06T10:35:53.101Z,30.17
2023-02-06T10:38:23.050Z,34.28
2023-02-06T10:41:09.000Z,33.53
2023-02-06T10:43:54.068Z,25.40
2023-02-06T10:46:33.253Z,34.92
2023-02-06T10:49:11.080Z,28.45
2023-02-06T10:51:43.422Z,23.33
2023-02-06T10:54:19.207Z,25.90
2023-02-06T10:56:47.694Z,27.67
2023-02-06T10:59:14.801Z,26.67
2023-02-06T11:01:43.343Z,28.60
2023-02-06T11:04:27.845Z,30.40
2023-02-06T11:06:58.106Z,25.20
2023-02-06T11:09:25.291Z,31.50
2023-02-06T11:11:54.531Z,29.77
2023-02-06T11:14:25.239Z,24.35
2023-02-06T11:16:52.492Z,21.63
2023-02-06T11:19:26.237Z,28.50
2023-02-06T11:21:53.346Z,23.92
2023-02-06T11:24:22.780Z,22.40
2023-02-06T11:26:52.399Z,26.27
2023-02-06T11:29:31.925Z,22.20
2023-02-06T11:32:03.848Z,24.38
2023-02-06T11:34:34.827Z,25.15
2023-02-06T11:37:25.057Z,20.40
2023-02-06T11:39:52.833Z,23.13
2023-02-06T11:42:22.173Z,25.20
2023-02-06T11:44:49.614Z,17.95
2023-02-06T11:47:31.449Z,19.98
2023-02-06T11:50:14.198Z,15.90
2023-02-06T11:52:42.975Z,20.75
2023-02-06T11:55:23.935Z,19.50
2023-02-06T11:58:14.138Z,18.05
2023-02-06T12:00:42.772Z,17.10
2023-02-06T12:03:25.026Z,19.65
2023-02-06T12:05:54.459Z,17.25
2023-02-06T12:08:22.138Z,17.48
2023-02-06T12:11:00.747Z,19.85
2023-02-06T12:13:37.643Z,17.38
2023-02-06T12:16:06.375Z,27.13
2023-02-06T12:18:40.696Z,14.15
2023-02-06T12:21:15.781Z,22.23
2023-02-06T12:24:03.267Z,15.88
2023-02-06T12:26:32.421Z,22.45
2023-02-06T12:29:02.665Z,23.08
2023-02-06T12:31:39.743Z,17.85
2023-02-06T12:34:13.201Z,13.15
2023-02-06T12:36:50.949Z,19.25
2023-02-06T12:39:22.958Z,21.92
2023-02-06T12:42:04.915Z,16.02
2023-02-06T12:44:43.552Z,16.80
2023-02-06T12:47:16.401Z,14.95
2023-02-06T12:49:46.624Z,15.27
2023-02-06T12:52:31.145Z,23.73
2023-02-06T12:55:07.172Z,21.52
2023-02-06T12:57:35.592Z,12.75
2023-02-06T13:00:17.051Z,17.05
2023-02-06T13:03:03.153Z,23.38
2023-02-06T13:05:33.378Z,12.27
2023-02-06T13:08:05.983Z,14.80
2023-02-06T13:13:00.250Z,20.63
2023-02-06T13:15:29.786Z,13.32
2023-02-06T13:17:57.816Z,12.18
2023-02-06T13:20:25.598Z,12.05
2023-02-06T13:22:52.719Z,16.25
2023-02-06T13:25:42.847Z,12.60
2023-02-06T13:28:22.512Z,13.10
2023-02-06T13:30:51.043Z,16.33
2023-02-06T13:33:20.644Z,14.18
2023-02-06T13:36:05.404Z,13.35
2023-02-06T13:38:35.566Z,13.68
2023-02-06T13:41:15.376Z,10.02
2023-02-06T13:43:52.153Z,10.00
2023-02-06T13:46:21.004Z,11.25
2023-02-06T13:48:48.074Z,12.13
2023-02-06T13:51:21.048Z,9.90
2023-02-06T13:54:06.919Z,18.90
2023-02-06T13:56:41.267Z,15.40
2023-02-06T13:59:31.390Z,10.77
2023-02-06T14:02:04.036Z,19.92
2023-02-06T14:04:33.431Z,39.13
2023-02-06T14:07:12.693Z,19.30
2023-02-06T14:09:56.450Z,15.15
2023-02-06T14:12:44.395Z,12.23
2023-02-06T14:15:30.360Z,8.23
2023-02-06T14:18:00.553Z,16.95
2023-02-06T14:20:37.466Z,22.52
2023-02-06T14:23:05.817Z,15.50
2023-02-06T14:25:52.597Z,14.73
2023-02-06T14:28:37.369Z,6.72
2023-02-06T14:31:39.909Z,15.85
2023-02-06T14:34:09.617Z,9.50
2023-02-06T14:36:36.688Z,13.05
2023-02-06T14:39:04.028Z,9.90
2023-02-06T14:41:33.094Z,9.18
2023-02-06T14:44:00.346Z,11.15
2023-02-06T14:46:28.025Z,14.25
2023-02-06T14:48:56.892Z,10.80
2023-02-06T14:51:24.196Z,11.20
2023-02-06T14:53:53.101Z,10.02
2023-02-06T14:56:26.047Z,9.55
2023-02-06T14:58:53.224Z,14.55
2023-02-06T15:01:28.156Z,77.43
2023-02-06T15:04:08.703Z,117.15
2023-02-06T15:06:37.653Z,46.97
2023-02-06T15:09:04.938Z,25.92
2023-02-06T15:11:33.044Z,17.73
2023-02-06T15:14:01.930Z,16.35
2023-02-06T15:16:30.361Z,14.45
2023-02-06T15:19:11.094Z,12.60
2023-02-06T15:21:38.398Z,8.07
2023-02-06T15:24:15.354Z,11.98
2023-02-06T15:27:03.570Z,9.52
2023-02-06T15:29:49.835Z,11.20
2023-02-06T15:32:20.902Z,11.65
2023-02-06T15:34:48.116Z,14.98
2023-02-06T15:37:26.656Z,10.05
2023-02-06T15:39:54.306Z,21.60
2023-02-06T15:42:22.837Z,9.75
2023-02-06T15:44:50.417Z,13.52
2023-02-06T15:47:18.586Z,10.35
2023-02-06T15:49:49.059Z,9.45
2023-02-06T15:52:32.179Z,12.45
2023-02-06T15:55:00.538Z,7.00
2023-02-06T15:57:33.706Z,9.55
2023-02-06T16:00:01.012Z,9.88
2023-02-06T16:02:36.246Z,8.98
2023-02-06T16:05:04.497Z,11.25
2023-02-06T16:07:33.198Z,9.73
2023-02-06T16:10:06.651Z,9.77
2023-02-06T16:12:37.929Z,12.02
2023-02-06T16:15:25.164Z,24.02
2023-02-06T16:17:52.392Z,9.80
2023-02-06T16:20:40.898Z,11.70
2023-02-06T16:23:13.906Z,13.63
2023-02-06T16:25:43.731Z,10.38
2023-02-06T16:28:20.505Z,10.93
2023-02-06T16:30:54.720Z,13.02
2023-02-06T16:33:42.128Z,12.63
2023-02-06T16:36:12.334Z,18.05
2023-02-06T16:38:39.528Z,12.55
2023-02-06T16:41:26.367Z,13.32
2023-02-06T16:43:54.509Z,9.65
2023-02-06T16:46:21.849Z,13.00
2023-02-06T16:48:52.031Z,10.32
2023-02-06T16:51:20.124Z,11.48
2023-02-06T16:53:57.219Z,7.57
2023-02-06T16:56:24.384Z,12.05
2023-02-06T16:58:51.488Z,14.10
2023-02-06T17:01:24.801Z,11.20
2023-02-06T17:03:52.683Z,15.45
2023-02-06T17:06:24.327Z,7.03
2023-02-06T17:08:52.548Z,7.93
2023-02-06T17:11:19.795Z,14.50
2023-02-06T17:13:46.961Z,13.00
2023-02-06T17:16:19.338Z,16.10
2023-02-06T17:18:47.177Z,15.07
2023-02-06T17:21:15.098Z,15.68
2023-02-06T17:23:42.599Z,18.23
2023-02-06T17:26:13.688Z,12.02
2023-02-06T17:28:40.980Z,14.65
2023-02-06T17:31:08.681Z,17.10
2023-02-06T17:33:36.281Z,9.60
2023-02-06T17:36:06.997Z,13.52
2023-02-06T17:38:34.896Z,7.03
2023-02-06T17:41:02.058Z,14.27
2023-02-06T17:43:29.586Z,9.80
2023-02-06T17:45:56.771Z,9.10
2023-02-06T17:48:23.940Z,12.13
2023-02-06T17:50:51.156Z,8.93
2023-02-06T17:53:18.283Z,8.25
2023-02-06T17:55:45.677Z,12.02
2023-02-06T17:58:13.045Z,6.60
2023-02-06T18:00:40.451Z,10.25
2023-02-06T18:03:07.866Z,10.57
2023-02-06T18:05:35.270Z,10.05
2023-02-06T18:08:02.605Z,9.60
2023-02-06T18:10:29.698Z,7.03
2023-02-06T18:12:56.888Z,7.28
2023-02-06T18:15:24.045Z,16.98
2023-02-06T18:17:51.633Z,11.43
2023-02-06T18:20:18.769Z,8.98
2023-02-06T18:22:46.823Z,11.60
2023-02-06T18:25:15.011Z,7.28
2023-02-06T18:27:42.761Z,10.43
2023-02-06T18:30:10.269Z,9.32
2023-02-06T18:32:38.357Z,10.70
2023-02-06T18:35:06.080Z,10.32
2023-02-06T18:37:33.269Z,8.60
2023-02-06T18:40:00.397Z,14.07
2023-02-06T18:42:50.746Z,7.55
2023-02-06T18:45:18.732Z,15.93
2023-02-06T18:47:46.108Z,12.85
2023-02-06T18:50:13.516Z,7.70
2023-02-06T18:52:40.746Z,9.50
2023-02-06T18:55:08.602Z,6.28
2023-02-06T18:57:36.071Z,10.70
2023-02-06T19:00:05.212Z,12.93
2023-02-06T19:02:32.317Z,8.80
2023-02-06T19:04:59.779Z,7.50
2023-02-06T19:07:26.988Z,11.02
2023-02-06T19:09:58.619Z,10.43
2023-02-06T19:12:28.375Z,7.47
2023-02-06T19:14:56.331Z,11.70
2023-02-06T19:17:24.021Z,12.35
2023-02-06T19:19:51.242Z,7.40
2023-02-06T19:22:18.736Z,9.43
2023-02-06T19:24:51.240Z,9.95
2023-02-06T19:27:18.785Z,10.82
2023-02-06T19:29:46.133Z,7.55
2023-02-06T19:32:13.267Z,5.85
2023-02-06T19:34:41.162Z,9.10
2023-02-06T19:37:09.419Z,8.30
2023-02-06T19:39:39.859Z,14.73
2023-02-06T19:42:09.359Z,11.90
2023-02-06T19:44:37.014Z,11.07
2023-02-06T19:47:04.997Z,12.95
2023-02-06T19:49:32.762Z,10.43
2023-02-06T19:51:59.954Z,13.60
2023-02-06T19:54:27.499Z,9.82
2023-02-06T19:56:55.073Z,15.15
2023-02-06T19:59:26.832Z,11.02
2023-02-06T20:01:55.496Z,14.52
2023-02-06T20:04:24.046Z,13.68
2023-02-06T20:06:51.472Z,6.57
2023-02-06T20:09:20.024Z,13.88
2023-02-06T20:11:48.221Z,10.50
2023-02-06T20:14:15.788Z,12.20
2023-02-06T20:16:43.547Z,12.20
2023-02-06T20:19:13.141Z,16.60
2023-02-06T20:21:41.170Z,13.82
2023-02-06T20:24:12.432Z,15.85
2023-02-06T20:26:40.588Z,24.85
2023-02-06T20:29:08.458Z,31.73
2023-02-06T20:31:36.093Z,30.27
2023-02-06T20:34:05.709Z,31.90
2023-02-06T20:36:32.794Z,70.75
2023-02-06T20:39:00.682Z,74.40
2023-02-06T20:41:28.967Z,63.40
2023-02-06T20:43:57.157Z,66.45
2023-02-06T20:46:26.482Z,71.05
2023-02-06T20:48:55.193Z,73.50
2023-02-06T20:51:22.374Z,75.65
2023-02-06T20:53:49.856Z,93.28
2023-02-06T20:56:17.596Z,76.32
2023-02-06T20:58:45.379Z,71.38
2023-02-06T21:01:16.732Z,77.80
2023-02-06T21:03:45.087Z,75.70
2023-02-06T21:06:12.481Z,73.20
2023-02-06T21:08:39.587Z,75.05
2023-02-06T21:11:07.185Z,69.07
2023-02-06T21:13:34.568Z,72.22
2023-02-06T21:16:01.849Z,64.15
2023-02-06T21:18:30.450Z,65.65
2023-02-06T21:20:57.791Z,61.25
2023-02-06T21:23:25.181Z,57.42
2023-02-06T21:25:55.805Z,61.20
2023-02-06T21:28:22.964Z,59.25
2023-02-06T21:30:59.972Z,54.08
2023-02-06T21:33:27.578Z,53.60
2023-02-06T21:35:55.021Z,46.95
2023-02-06T21:38:22.247Z,41.47
2023-02-06T21:40:49.692Z,41.67
2023-02-06T21:43:16.961Z,37.90
2023-02-06T21:45:44.581Z,42.47
2023-02-06T21:48:11.712Z,40.88
2023-02-06T21:50:39.964Z,41.85
2023-02-06T21:53:08.350Z,44.25
2023-02-06T21:55:35.747Z,38.38
2023-02-06T21:58:03.357Z,29.27
2023-02-06T22:00:30.517Z,32.60
2023-02-06T22:02:57.677Z,32.28
2023-02-06T22:05:24.918Z,28.67
2023-02-06T22:07:52.081Z,27.90
2023-02-06T22:10:19.272Z,26.05
2023-02-06T22:12:49.675Z,22.95
2023-02-06T22:15:16.889Z,24.42
2023-02-06T22:17:43.974Z,26.17
2023-02-06T22:20:11.096Z,20.77
2023-02-06T22:22:39.555Z,18.17
2023-02-06T22:25:07.908Z,17.75
2023-02-06T22:27:35.156Z,19.00
2023-02-06T22:30:02.385Z,16.77
2023-02-06T22:32:29.607Z,15.23
2023-02-06T22:35:00.491Z,16.65
2023-02-06T22:37:27.995Z,17.52
2023-02-06T22:39:55.828Z,17.08
2023-02-06T22:42:23.197Z,14.82
2023-02-06T22:44:50.396Z,16.58
2023-02-06T22:47:17.634Z,19.02
2023-02-06T22:49:44.901Z,27.98
2023-02-06T22:52:30.934Z,18.15
2023-02-06T22:54:58.100Z,16.98
2023-02-06T22:57:25.326Z,14.35
2023-02-06T22:59:52.417Z,12.02
2023-02-06T23:02:19.547Z,12.85
2023-02-06T23:04:46.648Z,13.70
2023-02-06T23:07:13.783Z,16.70
2023-02-06T23:09:41.081Z,17.48
2023-02-06T23:12:11.238Z,15.63
2023-02-06T23:14:38.565Z,16.38
2023-02-06T23:17:05.748Z,16.05
2023-02-06T23:19:33.045Z,19.55
2023-02-06T23:22:00.432Z,18.35
2023-02-06T23:24:27.671Z,18.85
2023-02-06T23:26:55.156Z,20.60
2023-02-06T23:29:23.180Z,17.75
2023-02-06T23:31:50.872Z,17.73
2023-02-06T23:34:18.710Z,18.90
2023-02-06T23:36:46.428Z,18.20
2023-02-06T23:39:13.711Z,21.80
2023-02-06T23:41:41.145Z,20.75
2023-02-06T23:44:09.065Z,21.70
2023-02-06T23:46:37.234Z,17.00
2023-02-06T23:49:04.829Z,28.05
2023-02-06T23:51:32.824Z,23.52
2023-02-06T23:53:59.947Z,21.17
2023-02-06T23:56:28.518Z,22.55
2023-02-06T23:58:58.130Z,19.25
